Terminal Aerodrome Forecast
Issued by NWS

Home | Current Version | Previous Version | Text Only | Print | Product List | Glossary On
Versions: 1 2 3 4 5 6 7 8 9 10 11 12 13 14 15 16 17
837
FTAK31 PAJN 232335
TAFAJN
TAF
PAJN 232335Z 2400/2424 11010KT P6SM FEW010 BKN035 OVC060
      TEMPO 2400/2402 6SM -RASN FEW006 OVC035
     FM241200 09008KT 4SM -RASN BR BKN025 OVC035 WS020/15040KT
     FM241500 10015G25KT 4SM -RASN FEW004 SCT010 OVC025=

USA.gov is the U.S. government's official web portal to all federal, state and local government web resources and services.